Time;durP1;ratioP1;P1;durP2;ratioP2;P2;SDS_P1;SDS_P2;PMS_P1;PMS_P2;Temp;Humidity;BMP_temperature;BMP_pressure;BME280_temperature;BME280_humidity;BME280_pressure;Samples;Min_cycle;Max_cycle;Signal;HPM_P1;HPM_P2
2021/11/12 00:13:21;;;;;;;;;;;;;;;20.17;55.15;100040.00;2060698;28;19963;-39
2021/11/12 00:14:25;;;;;;;;;;;;;;;20.16;55.09;100040.13;2056750;28;19925;-38
2021/11/12 00:15:26;;;;;;;;;;;;;;;20.16;55.09;100040.13;2059865;28;19989;-38
2021/11/12 00:16:27;;;;;;;;;;;;;;;20.14;55.16;100043.03;2053858;28;20676;-38
2021/11/12 00:17:31;;;;;;;;;;;;;;;20.15;55.07;100043.91;2053806;28;19924;-38
2021/11/12 00:18:32;;;;;;;;;;;;;;;20.14;55.25;100043.03;2053168;28;19921;-38
2021/11/12 00:19:33;;;;;;;;;;;;;;;20.13;55.05;100047.63;2053873;28;20699;-38
2021/11/12 00:20:33;;;;;;;;;;;;;;;20.12;55.02;100034.97;2053859;28;19917;-38
2021/11/12 00:21:34;;;;;;;;;;;;;;;20.12;55.16;100040.47;2053295;28;19918;-38
2021/11/12 00:22:35;;;;;;;;;;;;;;;20.11;55.25;100021.44;2054012;28;20251;-39
2021/11/12 00:23:37;;;;;;;;;;;;;;;20.12;55.27;100028.66;2056108;28;19925;-38
2021/11/12 00:24:38;;;;;;;;;;;;;;;20.11;55.17;100025.06;2053506;28;19992;-39
2021/11/12 00:25:39;;;;;;;;;;;;;;;20.09;55.37;100027.09;2055661;28;19918;-38
2021/11/12 00:26:39;;;;;;;;;;;;;;;20.11;55.34;100032.41;2055072;28;19925;-38
2021/11/12 00:27:40;;;;;;;;;;;;;;;20.11;55.50;100033.28;2061449;28;19909;-38
2021/11/12 00:28:55;;;;;;;;;;;;;;;20.12;55.49;100034.13;2059367;28;20349;-38
2021/11/12 00:32:18;;;;;;;;;;;;;;;20.09;55.26;100043.50;2057481;28;20039;-38
2021/11/12 00:35:50;;;;;;;;;;;;;;;20.06;55.25;100041.09;2058352;28;19921;-38
2021/11/12 00:38:14;;;;;;;;;;;;;;;20.04;55.37;100034.94;2054971;28;19918;-38
2021/11/12 00:39:51;;;;;;;;;;;;;;;20.03;55.55;100035.94;2059981;28;19956;-38
2021/11/12 00:42:14;;;;;;;;;;;;;;;20.02;55.53;100034.22;2060890;28;20751;-38
2021/11/12 00:43:29;;;;;;;;;;;;;;;20.02;55.48;100033.38;2057232;28;19925;-38
2021/11/12 00:44:34;;;;;;;;;;;;;;;20.02;55.62;100034.22;2055523;28;19929;-38
2021/11/12 00:45:41;;;;;;;;;;;;;;;20.01;55.62;100031.63;2061295;28;19921;-39
2021/11/12 00:47:25;;;;;;;;;;;;;;;20.00;55.58;100036.25;2059671;28;19924;-38
2021/11/12 00:49:10;;;;;;;;;;;;;;;20.00;55.68;100029.91;2056971;28;20225;-38
2021/11/12 00:51:25;;;;;;;;;;;;;;;19.99;55.65;100029.06;2054206;28;20387;-39
2021/11/12 00:53:41;;;;;;;;;;;;;;;19.98;55.64;100027.31;2058396;28;20328;-38
2021/11/12 00:53:51;;;;;;;;;;;;;;;19.98;55.75;100007.31;2059170;28;19921;-38
2021/11/12 00:54:51;;;;;;;;;;;;;;;19.99;55.56;100018.13;2060826;28;20128;-38
2021/11/12 00:55:51;;;;;;;;;;;;;;;19.98;55.57;100015.53;2058087;28;19936;-38
2021/11/12 00:56:52;;;;;;;;;;;;;;;19.97;55.75;100011.09;2058266;28;19922;-38
2021/11/12 00:57:54;;;;;;;;;;;;;;;19.97;55.63;100016.56;2059423;28;19925;-38
2021/11/12 00:58:56;;;;;;;;;;;;;;;19.97;55.79;100011.09;2059613;28;19917;-38
2021/11/12 00:59:58;;;;;;;;;;;;;;;19.96;55.73;100009.34;2065049;28;19917;-38
2021/11/12 01:00:59;;;;;;;;;;;;;;;19.95;55.65;100008.50;2062351;28;19917;-38
2021/11/12 01:02:00;;;;;;;;;;;;;;;19.95;55.56;100015.84;2056129;28;19922;-38
2021/11/12 01:03:01;;;;;;;;;;;;;;;19.95;55.67;100008.50;2066670;28;19922;-38
2021/11/12 01:04:02;;;;;;;;;;;;;;;19.95;55.73;100011.25;2062868;28;19925;-38
2021/11/12 01:05:03;;;;;;;;;;;;;;;19.93;55.75;100007.78;2059410;28;20367;-38
2021/11/12 01:06:04;;;;;;;;;;;;;;;19.93;55.86;100007.78;2060572;28;19921;-38
2021/11/12 01:07:04;;;;;;;;;;;;;;;19.93;55.75;100007.78;2058761;28;20024;-38
2021/11/12 01:08:06;;;;;;;;;;;;;;;19.92;55.80;100000.63;2065494;28;20278;-38
2021/11/12 01:09:09;;;;;;;;;;;;;;;19.90;55.67;100002.66;2062069;28;20326;-38
2021/11/12 01:10:10;;;;;;;;;;;;;;;19.92;55.67;100000.63;2062858;28;19921;-39
2021/11/12 01:11:12;;;;;;;;;;;;;;;19.91;55.87;99996.16;2061402;28;19915;-38
2021/11/12 01:12:13;;;;;;;;;;;;;;;19.90;55.70;99994.44;2058602;28;20007;-38
2021/11/12 01:13:13;;;;;;;;;;;;;;;19.90;55.93;99994.44;2060245;28;19918;-38
2021/11/12 01:14:25;;;;;;;;;;;;;;;19.90;55.78;99991.72;2058833;28;19992;-39
2021/11/12 01:15:26;;;;;;;;;;;;;;;19.89;55.75;99989.97;2059159;28;20003;-38
2021/11/12 01:16:26;;;;;;;;;;;;;;;19.88;55.80;99989.13;2056383;28;19917;-38
2021/11/12 01:17:27;;;;;;;;;;;;;;;19.89;55.69;99989.97;2055037;28;19925;-38
2021/11/12 01:18:27;;;;;;;;;;;;;;;19.89;55.89;99992.69;2060543;28;20507;-38
2021/11/12 01:19:28;;;;;;;;;;;;;;;19.88;55.81;99989.13;2057965;28;19917;-39
2021/11/12 01:20:28;;;;;;;;;;;;;;;19.86;55.99;99990.28;2060194;28;20514;-38
2021/11/12 01:21:28;;;;;;;;;;;;;;;19.87;55.77;99997.50;2066704;28;20753;-38
2021/11/12 01:22:29;;;;;;;;;;;;;;;19.86;55.79;99993.03;2052488;28;19976;-38
2021/11/12 01:23:30;;;;;;;;;;;;;;;19.86;56.00;99990.28;2060244;28;19987;-38
2021/11/12 01:24:30;;;;;;;;;;;;;;;19.86;55.86;99993.03;2057653;28;19918;-38
2021/11/12 01:25:31;;;;;;;;;;;;;;;19.85;55.91;99994.06;2060240;28;19953;-38
2021/11/12 01:26:31;;;;;;;;;;;;;;;19.85;55.88;99991.31;2060453;28;20580;-38
2021/11/12 01:27:33;;;;;;;;;;;;;;;19.84;55.86;99989.59;2058598;28;19960;-38
2021/11/12 01:28:34;;;;;;;;;;;;;;;19.84;55.99;99986.84;2059637;28;20402;-38
2021/11/12 01:29:35;;;;;;;;;;;;;;;19.82;55.93;99984.28;2058623;28;19920;-38
2021/11/12 01:30:35;;;;;;;;;;;;;;;19.83;55.89;99985.16;2058302;28;19917;-38
2021/11/12 01:31:36;;;;;;;;;;;;;;;19.82;55.91;99989.75;2059787;28;19941;-38
2021/11/12 01:32:36;;;;;;;;;;;;;;;19.82;55.92;99994.34;2058296;28;20584;-38
2021/11/12 01:33:37;;;;;;;;;;;;;;;19.81;56.03;99981.69;2056338;28;20386;-38
2021/11/12 01:34:38;;;;;;;;;;;;;;;19.81;56.06;99987.16;2060870;28;19917;-39
2021/11/12 01:35:38;;;;;;;;;;;;;;;19.80;56.05;99985.47;2061125;28;19917;-38
2021/11/12 01:36:42;;;;;;;;;;;;;;;19.81;56.10;99987.16;2059687;28;19906;-38
2021/11/12 01:37:44;;;;;;;;;;;;;;;19.80;55.97;99990.94;2059408;28;19932;-38
2021/11/12 01:38:45;;;;;;;;;;;;;;;19.79;56.00;99987.31;2059403;28;19925;-38
2021/11/12 01:40:00;;;;;;;;;;;;;;;19.79;56.11;99990.06;2059429;28;19928;-38
2021/11/12 01:41:01;;;;;;;;;;;;;;;19.79;56.03;99986.47;2058806;28;19924;-38
2021/11/12 01:42:01;;;;;;;;;;;;;;;19.78;56.17;99985.59;2061762;28;20189;-38
2021/11/12 01:43:04;;;;;;;;;;;;;;;19.77;56.11;99981.16;2061733;28;19917;-38
2021/11/12 01:44:08;;;;;;;;;;;;;;;19.75;56.11;99977.72;2056074;28;19914;-38
2021/11/12 01:45:10;;;;;;;;;;;;;;;19.75;56.20;99987.81;2060847;28;20332;-38
2021/11/12 01:47:20;;;;;;;;;;;;;;;19.75;56.19;99994.13;2056706;28;20019;-38
2021/11/12 01:49:45;;;;;;;;;;;;;;;19.74;56.34;99997.00;2057202;28;19928;-38
2021/11/12 01:51:36;;;;;;;;;;;;;;;19.73;56.23;99995.31;2058210;28;20261;-38
2021/11/12 01:53:13;;;;;;;;;;;;;;;19.72;56.24;99990.84;2055272;28;20186;-38
2021/11/12 01:55:46;;;;;;;;;;;;;;;19.71;56.34;99992.72;2056336;28;19939;-38
2021/11/12 01:57:10;;;;;;;;;;;;;;;19.70;56.22;99986.41;2058034;28;19917;-38
2021/11/12 01:59:16;;;;;;;;;;;;;;;19.69;56.34;99995.59;2063245;28;19924;-38
2021/11/12 02:00:19;;;;;;;;;;;;;;;19.67;56.40;99986.72;2060028;28;19924;-39
2021/11/12 02:01:21;;;;;;;;;;;;;;;19.66;56.30;99995.03;2061505;28;19946;-39
2021/11/12 02:02:23;;;;;;;;;;;;;;;19.65;56.42;99988.72;2069459;28;20350;-38
2021/11/12 02:03:23;;;;;;;;;;;;;;;19.65;56.40;99985.97;2057389;28;19918;-38
2021/11/12 02:04:25;;;;;;;;;;;;;;;19.65;56.30;99983.25;2059254;28;19915;-38
2021/11/12 02:05:26;;;;;;;;;;;;;;;19.64;56.39;99984.25;2060426;28;19925;-38
2021/11/12 02:06:27;;;;;;;;;;;;;;;19.63;56.40;99993.47;2059833;28;19999;-38
2021/11/12 02:07:27;;;;;;;;;;;;;;;19.65;56.39;99987.84;2055023;28;19921;-39
2021/11/12 02:08:27;;;;;;;;;;;;;;;19.63;56.57;99993.47;2060743;28;20536;-39
2021/11/12 02:09:28;;;;;;;;;;;;;;;19.64;56.46;99992.44;2061453;28;19917;-38
2021/11/12 02:10:31;;;;;;;;;;;;;;;19.64;56.35;99992.44;2065083;28;19917;-38
2021/11/12 02:11:31;;;;;;;;;;;;;;;19.63;56.53;99993.47;2055650;28;19925;-38
2021/11/12 02:12:41;;;;;;;;;;;;;;;19.62;56.48;99994.50;2056519;28;19949;-39
2021/11/12 02:13:43;;;;;;;;;;;;;;;19.62;56.42;99988.16;2060912;28;19917;-38
2021/11/12 02:14:45;;;;;;;;;;;;;;;19.61;56.51;99990.03;2054558;28;20082;-38
2021/11/12 02:15:46;;;;;;;;;;;;;;;19.60;56.52;99991.06;2057266;28;19928;-38
2021/11/12 02:17:05;;;;;;;;;;;;;;;19.59;56.48;99989.31;2060969;28;20197;-38
2021/11/12 02:18:12;;;;;;;;;;;;;;;19.59;56.49;99994.78;2051954;28;19989;-38
2021/11/12 02:19:13;;;;;;;;;;;;;;;19.59;56.67;99989.31;2060259;28;19960;-38
2021/11/12 02:20:25;;;;;;;;;;;;;;;19.59;56.64;99985.72;2060097;28;20389;-38
2021/11/12 02:21:52;;;;;;;;;;;;;;;19.58;56.63;99987.63;2059041;28;19956;-38
2021/11/12 02:22:52;;;;;;;;;;;;;;;19.58;56.66;99976.69;2058231;28;19925;-38
2021/11/12 02:24:26;;;;;;;;;;;;;;;19.58;56.53;99982.16;2058317;28;19959;-38
2021/11/12 02:25:52;;;;;;;;;;;;;;;19.58;56.65;99984.88;2056035;28;20346;-39
2021/11/12 02:26:54;;;;;;;;;;;;;;;19.59;56.54;99978.38;2057112;28;20224;-38
2021/11/12 02:28:00;;;;;;;;;;;;;;;19.59;56.51;99972.91;2059400;28;20331;-38
2021/11/12 02:29:03;;;;;;;;;;;;;;;19.61;56.57;99970.03;2059182;28;19960;-38
2021/11/12 02:30:04;;;;;;;;;;;;;;;19.60;56.70;99977.38;2055525;28;19918;-40
2021/11/12 02:31:04;;;;;;;;;;;;;;;19.59;56.68;99983.84;2060234;28;20409;-38
2021/11/12 02:32:13;;;;;;;;;;;;;;;19.59;56.63;99983.00;2055858;28;19914;-38
2021/11/12 02:33:15;;;;;;;;;;;;;;;19.59;56.58;99975.66;2056607;28;20296;-39
2021/11/12 02:34:16;;;;;;;;;;;;;;;19.59;56.59;99978.38;2050481;28;20054;-38
2021/11/12 02:35:16;;;;;;;;;;;;;;;19.60;56.74;99984.69;2058478;28;19917;-38
2021/11/12 02:36:17;;;;;;;;;;;;;;;19.59;56.79;99978.38;2059916;28;19913;-38
2021/11/12 02:37:22;;;;;;;;;;;;;;;19.60;56.64;99976.50;2059672;28;20217;-38
2021/11/12 02:38:22;;;;;;;;;;;;;;;19.59;56.68;99974.78;2059913;28;19929;-38
2021/11/12 02:39:23;;;;;;;;;;;;;;;19.57;56.82;99974.09;2057189;28;20151;-38
2021/11/12 02:40:24;;;;;;;;;;;;;;;19.57;56.89;99974.94;2059477;28;20758;-38
2021/11/12 02:41:24;;;;;;;;;;;;;;;19.57;56.82;99974.09;2060514;28;19924;-38
2021/11/12 02:42:26;;;;;;;;;;;;;;;19.57;56.67;99969.47;2060242;28;19917;-38
2021/11/12 02:43:26;;;;;;;;;;;;;;;19.57;56.75;99965.88;2053357;28;19917;-38
2021/11/12 02:44:32;;;;;;;;;;;;;;;19.56;56.64;99958.72;2063041;28;19917;-38
2021/11/12 02:45:34;;;;;;;;;;;;;;;19.55;56.78;99966.06;2065148;28;20255;-38
2021/11/12 02:46:35;;;;;;;;;;;;;;;19.55;56.72;99962.44;2060822;28;20523;-38
2021/11/12 02:47:35;;;;;;;;;;;;;;;19.55;56.78;99966.06;2059319;28;19916;-38
2021/11/12 02:48:37;;;;;;;;;;;;;;;19.54;56.86;99964.31;2060869;28;19918;-38
2021/11/12 02:49:38;;;;;;;;;;;;;;;19.54;56.75;99975.25;2055280;28;19924;-39
2021/11/12 02:50:39;;;;;;;;;;;;;;;19.54;56.72;99969.78;2056835;28;20549;-39
2021/11/12 02:51:39;;;;;;;;;;;;;;;19.54;56.73;99964.31;2058043;28;19993;-38
2021/11/12 02:52:41;;;;;;;;;;;;;;;19.53;56.71;99972.69;2059872;28;19916;-38
2021/11/12 02:53:42;;;;;;;;;;;;;;;19.53;56.66;99965.34;2056991;28;19913;-38
2021/11/12 02:54:43;;;;;;;;;;;;;;;19.53;56.67;99968.09;2059636;28;19918;-38
2021/11/12 02:55:44;;;;;;;;;;;;;;;19.52;56.86;99971.81;2058678;28;19961;-38
2021/11/12 02:56:44;;;;;;;;;;;;;;;19.51;56.96;99975.59;2059975;28;19976;-38
2021/11/12 02:57:46;;;;;;;;;;;;;;;19.52;56.72;99977.28;2066139;28;20194;-38
2021/11/12 02:58:49;;;;;;;;;;;;;;;19.51;56.97;99980.19;2066190;28;19918;-38
2021/11/12 02:59:50;;;;;;;;;;;;;;;19.51;56.77;99981.03;2062248;28;19913;-38
2021/11/12 03:00:51;;;;;;;;;;;;;;;19.50;56.75;99979.34;2060272;28;20004;-38
2021/11/12 03:01:51;;;;;;;;;;;;;;;19.49;56.73;99970.25;2062583;28;19917;-39
2021/11/12 03:02:52;;;;;;;;;;;;;;;19.50;56.83;99979.34;2058249;28;19932;-38
2021/11/12 03:03:53;;;;;;;;;;;;;;;19.50;56.75;99982.06;2066808;28;20268;-39
2021/11/12 03:04:53;;;;;;;;;;;;;;;19.48;56.87;99978.63;2063516;28;19918;-39
2021/11/12 03:05:53;;;;;;;;;;;;;;;19.48;56.84;99984.94;2064930;28;19924;-38
2021/11/12 03:06:57;;;;;;;;;;;;;;;19.48;56.90;99981.38;2059136;28;19941;-38
2021/11/12 03:07:58;;;;;;;;;;;;;;;19.48;56.90;99981.38;2059743;28;19913;-38
2021/11/12 03:09:03;;;;;;;;;;;;;;;19.46;57.00;99978.78;2060224;28;19924;-38
2021/11/12 03:10:04;;;;;;;;;;;;;;;19.46;56.89;99978.78;2059964;28;19917;-38
2021/11/12 03:11:05;;;;;;;;;;;;;;;19.46;56.88;99983.38;2059058;28;20534;-39
2021/11/12 03:12:06;;;;;;;;;;;;;;;19.45;56.80;99989.84;2065889;28;19925;-38
2021/11/12 03:13:07;;;;;;;;;;;;;;;19.45;56.92;99976.19;2060721;28;20355;-38
2021/11/12 03:14:09;;;;;;;;;;;;;;;19.44;56.90;99980.81;2059701;28;19917;-38
2021/11/12 03:15:11;;;;;;;;;;;;;;;19.43;56.95;99973.63;2058182;28;19910;-39
2021/11/12 03:16:14;;;;;;;;;;;;;;;19.44;56.92;99974.47;2062640;28;20392;-38
2021/11/12 03:17:15;;;;;;;;;;;;;;;19.41;56.86;99972.91;2061610;28;19925;-38
2021/11/12 03:18:15;;;;;;;;;;;;;;;19.42;57.10;99976.50;2059882;28;21427;-38
2021/11/12 03:19:17;;;;;;;;;;;;;;;19.41;57.07;99975.66;2060830;28;20642;-38
2021/11/12 03:20:18;;;;;;;;;;;;;;;19.41;57.04;99967.44;2061361;28;19924;-39
2021/11/12 03:21:21;;;;;;;;;;;;;;;19.41;57.04;99966.59;2062968;28;20361;-38
2021/11/12 03:22:23;;;;;;;;;;;;;;;19.40;57.03;99964.84;2061408;28;20443;-38
2021/11/12 03:23:29;;;;;;;;;;;;;;;19.40;57.03;99964.84;2059089;28;20007;-38
2021/11/12 03:24:39;;;;;;;;;;;;;;;19.40;56.98;99964.84;2059620;28;20283;-38
2021/11/12 03:26:29;;;;;;;;;;;;;;;19.39;57.04;99963.16;2061462;28;19916;-38
2021/11/12 03:28:32;;;;;;;;;;;;;;;19.38;57.01;99966.91;2060423;28;20370;-39
2021/11/12 03:31:04;;;;;;;;;;;;;;;19.37;57.11;99962.44;2061554;28;20259;-38
2021/11/12 04:00:49;;;;;;;;;;;;;;;19.25;57.22;99954.44;2056538;28;20339;-38
2021/11/12 04:02:52;;;;;;;;;;;;;;;19.25;57.37;99965.38;2059980;28;19916;-39
2021/11/12 04:04:37;;;;;;;;;;;;;;;19.24;57.16;99958.22;2061728;28;19913;-38
2021/11/12 04:18:38;;;;;;;;;;;;;;;19.23;57.39;99951.03;2059878;28;20224;-38
2021/11/12 05:10:32;;;;;;;;;;;;;;;19.12;57.66;99953.97;2054405;28;19961;-38
2021/11/12 05:34:13;;;;;;;;;;;;;;;19.06;57.81;99960.06;2059624;28;20681;-38
2021/11/12 05:44:18;;;;;;;;;;;;;;;19.04;57.83;99956.63;2061732;28;19956;-38
2021/11/12 05:45:31;;;;;;;;;;;;;;;19.05;57.80;99952.88;2059693;28;20203;-39
2021/11/12 05:51:56;;;;;;;;;;;;;;;19.05;57.80;99953.72;2059978;28;20054;-38
2021/11/12 05:55:35;;;;;;;;;;;;;;;19.06;57.80;99943.69;2055704;28;19906;-38
2021/11/12 05:56:36;;;;;;;;;;;;;;;19.06;57.85;99943.69;2058371;28;20355;-38
2021/11/12 05:57:38;;;;;;;;;;;;;;;19.05;57.73;99947.41;2056546;28;19918;-38
2021/11/12 05:58:38;;;;;;;;;;;;;;;19.06;57.85;99943.69;2057047;28;19917;-38
2021/11/12 05:59:39;;;;;;;;;;;;;;;19.04;57.75;99938.34;2060768;28;20952;-38
2021/11/12 06:00:40;;;;;;;;;;;;;;;19.05;57.85;99941.94;2060084;28;19918;-38
2021/11/12 06:01:42;;;;;;;;;;;;;;;19.05;57.89;99937.34;2057979;28;20208;-38
2021/11/12 06:02:43;;;;;;;;;;;;;;;19.04;57.85;99935.63;2061809;28;19953;-38
2021/11/12 06:03:44;;;;;;;;;;;;;;;19.04;57.78;99929.31;2058604;28;19928;-39
2021/11/12 06:04:45;;;;;;;;;;;;;;;19.04;57.84;99932.03;2059996;28;20327;-39
2021/11/12 06:05:45;;;;;;;;;;;;;;;19.04;57.94;99940.25;2063571;28;19929;-38
2021/11/12 06:06:46;;;;;;;;;;;;;;;19.03;57.83;99933.94;2063429;28;19918;-38
2021/11/12 06:07:48;;;;;;;;;;;;;;;19.04;57.95;99945.72;2063829;28;19924;-38
2021/11/12 06:08:48;;;;;;;;;;;;;;;19.03;57.65;99944.84;2061468;28;19917;-39
2021/11/12 06:09:48;;;;;;;;;;;;;;;19.03;57.84;99943.97;2067048;28;20245;-38
2021/11/12 06:10:48;;;;;;;;;;;;;;;19.03;57.83;99943.97;2058015;28;20000;-38
2021/11/12 06:11:52;;;;;;;;;;;;;;;19.03;57.71;99949.44;2065047;28;19917;-38
2021/11/12 06:12:52;;;;;;;;;;;;;;;19.02;57.79;99951.31;2058953;28;19967;-38
2021/11/12 06:13:57;;;;;;;;;;;;;;;19.02;57.83;99951.31;2059642;28;20312;-38
2021/11/12 06:14:57;;;;;;;;;;;;;;;19.02;57.87;99953.19;2054387;28;20004;-39
2021/11/12 06:15:58;;;;;;;;;;;;;;;19.01;57.84;99957.81;2056725;28;19917;-40
2021/11/12 06:16:58;;;;;;;;;;;;;;;19.02;57.96;99961.38;2060506;28;19914;-38
2021/11/12 06:17:58;;;;;;;;;;;;;;;19.01;57.81;99968.72;2059761;28;19922;-39
2021/11/12 06:18:59;;;;;;;;;;;;;;;19.02;57.88;99964.13;2060117;28;19961;-38
2021/11/12 06:20:00;;;;;;;;;;;;;;;19.01;57.83;99970.56;2059233;28;19910;-38
2021/11/12 06:21:00;;;;;;;;;;;;;;;19.01;57.84;99968.72;2058551;28;19917;-39
2021/11/12 06:22:00;;;;;;;;;;;;;;;19.00;57.82;99971.59;2057944;28;19917;-38
2021/11/12 06:23:01;;;;;;;;;;;;;;;19.01;57.69;99973.31;2060196;28;20224;-38
2021/11/12 06:24:01;;;;;;;;;;;;;;;19.01;57.77;99973.31;2059187;28;19906;-38
2021/11/12 06:25:03;;;;;;;;;;;;;;;18.99;57.72;99970.75;2059134;28;19910;-38
2021/11/12 06:26:04;;;;;;;;;;;;;;;18.99;57.96;99973.47;2060119;28;19975;-38
2021/11/12 06:27:07;;;;;;;;;;;;;;;18.99;57.88;99972.63;2060726;28;19917;-38
2021/11/12 06:28:08;;;;;;;;;;;;;;;18.99;57.84;99978.94;2060386;28;20138;-38
2021/11/12 06:29:08;;;;;;;;;;;;;;;18.98;57.82;99981.81;2059980;28;19924;-39
2021/11/12 06:30:09;;;;;;;;;;;;;;;18.99;57.81;99981.66;2059461;28;20221;-38
2021/11/12 06:31:09;;;;;;;;;;;;;;;18.99;57.86;99986.28;2062192;28;19918;-38
2021/11/12 06:32:09;;;;;;;;;;;;;;;18.98;57.90;99987.28;2059606;28;19971;-38
2021/11/12 06:33:10;;;;;;;;;;;;;;;18.98;57.85;99990.00;2058341;28;19918;-39
2021/11/12 06:34:10;;;;;;;;;;;;;;;18.99;57.91;99989.00;2061649;28;20244;-39
2021/11/12 06:35:11;;;;;;;;;;;;;;;18.98;57.91;99992.75;2058599;28;19918;-38
2021/11/12 06:36:11;;;;;;;;;;;;;;;18.98;57.95;99998.19;2060700;28;19985;-39
2021/11/12 06:37:11;;;;;;;;;;;;;;;18.98;57.87;99995.47;2057460;28;19967;-38
2021/11/12 06:38:15;;;;;;;;;;;;;;;18.98;57.99;99992.75;2056887;28;19929;-38
2021/11/12 06:39:15;;;;;;;;;;;;;;;18.97;57.93;99988.31;2061561;28;19921;-38
2021/11/12 06:40:20;;;;;;;;;;;;;;;18.96;58.03;99997.50;2055475;28;19917;-39
2021/11/12 06:41:52;;;;;;;;;;;;;;;18.96;57.95;99994.75;2058770;28;20454;-38
2021/11/12 06:43:08;;;;;;;;;;;;;;;18.95;57.93;99990.31;2056902;28;20307;-38
2021/11/12 06:49:25;;;;;;;;;;;;;;;18.95;57.82;99995.78;2052564;28;20029;-38
2021/11/12 06:50:26;;;;;;;;;;;;;;;18.94;57.93;99988.59;2060214;28;19913;-38
2021/11/12 06:51:26;;;;;;;;;;;;;;;18.94;57.99;99988.59;2058232;28;19922;-39
2021/11/12 06:52:28;;;;;;;;;;;;;;;18.93;57.92;99993.19;2062223;28;20414;-38
2021/11/12 06:53:29;;;;;;;;;;;;;;;18.93;57.93;99986.88;2059573;28;19924;-38
2021/11/12 06:54:29;;;;;;;;;;;;;;;18.93;57.98;99986.88;2058782;28;19949;-39
2021/11/12 06:55:30;;;;;;;;;;;;;;;18.93;57.98;99998.66;2061179;28;19924;-38
2021/11/12 06:56:30;;;;;;;;;;;;;;;18.93;58.03;99985.00;2057217;28;19917;-39
2021/11/12 06:57:30;;;;;;;;;;;;;;;18.94;57.93;99988.59;2061352;28;19925;-39
2021/11/12 06:58:31;;;;;;;;;;;;;;;18.93;57.89;99992.34;2060152;28;19937;-38
2021/11/12 06:59:31;;;;;;;;;;;;;;;18.93;57.95;99987.72;2060569;28;19918;-38
2021/11/12 07:00:31;;;;;;;;;;;;;;;18.94;57.91;99983.16;2061614;28;20236;-38
2021/11/12 07:01:32;;;;;;;;;;;;;;;18.95;57.93;99990.31;2059653;28;19917;-38
2021/11/12 07:02:32;;;;;;;;;;;;;;;18.94;57.97;99988.59;2060684;28;19925;-39
2021/11/12 07:03:33;;;;;;;;;;;;;;;18.94;57.99;99986.72;2061385;28;20380;-38
2021/11/12 07:04:34;;;;;;;;;;;;;;;18.95;58.13;99990.31;2060273;28;19918;-38
2021/11/12 07:05:34;;;;;;;;;;;;;;;18.95;57.95;99995.78;2062312;28;20275;-39
2021/11/12 07:06:36;;;;;;;;;;;;;;;18.95;57.94;99995.78;2059556;28;19917;-38
2021/11/12 07:07:36;;;;;;;;;;;;;;;18.95;58.00;99990.31;2060520;28;19924;-38
2021/11/12 07:08:37;;;;;;;;;;;;;;;18.95;57.92;99984.84;2058058;28;20230;-38
2021/11/12 07:09:38;;;;;;;;;;;;;;;18.95;57.96;99984.84;2057044;28;19917;-38
2021/11/12 07:10:38;;;;;;;;;;;;;;;18.95;57.98;99979.38;2059728;28;19917;-38
2021/11/12 07:11:39;;;;;;;;;;;;;;;18.94;57.97;99984.00;2067003;28;20339;-38
2021/11/12 07:12:39;;;;;;;;;;;;;;;18.97;57.85;99980.09;2060287;28;19928;-38
2021/11/12 07:13:40;;;;;;;;;;;;;;;18.95;57.92;99985.72;2061266;28;20047;-38
2021/11/12 07:14:41;;;;;;;;;;;;;;;18.96;57.85;99986.56;2059646;28;19917;-38
2021/11/12 07:15:42;;;;;;;;;;;;;;;18.95;57.94;99987.59;2057822;28;19917;-38
2021/11/12 07:16:42;;;;;;;;;;;;;;;18.95;58.07;99990.31;2057303;28;20335;-38
2021/11/12 07:17:42;;;;;;;;;;;;;;;18.95;57.99;99987.59;2054323;28;19960;-38
2021/11/12 07:18:44;;;;;;;;;;;;;;;18.94;58.00;99999.53;2059369;28;19952;-39
2021/11/12 07:19:44;;;;;;;;;;;;;;;18.94;57.99;99992.19;2055814;28;19922;-38
2021/11/12 07:20:46;;;;;;;;;;;;;;;18.93;57.94;99987.72;2059444;28;19972;-38
2021/11/12 07:21:47;;;;;;;;;;;;;;;18.93;57.93;99990.47;2059534;28;20354;-38
2021/11/12 07:22:47;;;;;;;;;;;;;;;18.93;57.98;99993.19;2060683;28;19909;-38
2021/11/12 07:23:47;;;;;;;;;;;;;;;18.92;57.99;99996.09;2059690;28;19932;-38
2021/11/12 07:24:48;;;;;;;;;;;;;;;18.93;57.95;100003.25;2057421;28;19909;-38
2021/11/12 07:25:49;;;;;;;;;;;;;;;18.93;58.04;100006.00;2057412;28;19913;-38
2021/11/12 07:26:49;;;;;;;;;;;;;;;18.93;58.10;100011.44;2059354;28;19916;-38
2021/11/12 07:27:50;;;;;;;;;;;;;;;18.93;58.03;100003.25;2057122;28;19922;-38
2021/11/12 07:28:52;;;;;;;;;;;;;;;18.91;57.97;100006.13;2060609;28;20281;-38
2021/11/12 07:29:52;;;;;;;;;;;;;;;18.91;58.04;100008.00;2060749;28;19975;-38
2021/11/12 07:30:53;;;;;;;;;;;;;;;18.91;57.98;100005.28;2062474;28;19914;-38
2021/11/12 07:31:55;;;;;;;;;;;;;;;18.91;58.00;100005.28;2063964;28;20607;-38
2021/11/12 07:32:56;;;;;;;;;;;;;;;18.90;58.03;100007.16;2058356;28;20304;-38
2021/11/12 07:33:59;;;;;;;;;;;;;;;18.91;57.91;100016.19;2061060;28;20252;-38
2021/11/12 07:34:59;;;;;;;;;;;;;;;18.90;58.04;100022.69;2060434;28;19921;-38
2021/11/12 07:36:07;;;;;;;;;;;;;;;18.91;58.06;100016.19;2055899;28;19909;-38
2021/11/12 07:37:11;;;;;;;;;;;;;;;18.91;58.06;100027.13;2060350;28;20699;-38
2021/11/12 07:38:15;;;;;;;;;;;;;;;18.90;57.93;100025.41;2061231;28;20313;-38
2021/11/12 07:39:39;;;;;;;;;;;;;;;18.90;57.96;100019.97;2060794;28;20016;-38
2021/11/12 07:44:35;;;;;;;;;;;;;;;18.89;57.94;100026.41;2060131;28;20334;-38
2021/11/12 07:45:39;;;;;;;;;;;;;;;18.88;57.92;100028.28;2060435;28;19917;-38
2021/11/12 07:47:40;;;;;;;;;;;;;;;18.88;58.02;100038.38;2061066;28;19923;-38
2021/11/12 07:48:40;;;;;;;;;;;;;;;18.88;57.90;100033.75;2060504;28;20135;-38
2021/11/12 07:49:42;;;;;;;;;;;;;;;18.87;58.00;100031.19;2060190;28;20250;-38
2021/11/12 07:50:42;;;;;;;;;;;;;;;18.88;58.00;100027.44;2066779;28;20162;-38
2021/11/12 07:51:42;;;;;;;;;;;;;;;18.87;58.05;100031.19;2066509;28;20327;-38
2021/11/12 07:52:43;;;;;;;;;;;;;;;18.88;58.03;100032.91;2061822;28;19917;-39
2021/11/12 07:53:43;;;;;;;;;;;;;;;18.89;58.07;100040.06;2059011;28;19921;-39
2021/11/12 07:54:44;;;;;;;;;;;;;;;18.89;57.98;100030.03;2062633;28;19947;-39
2021/11/12 07:55:44;;;;;;;;;;;;;;;18.91;57.98;100036.19;2058617;28;19952;-38
2021/11/12 07:56:45;;;;;;;;;;;;;;;18.92;57.95;100026.13;2057792;28;19917;-38
2021/11/12 07:57:45;;;;;;;;;;;;;;;18.94;57.97;100029.59;2061519;28;20531;-38
2021/11/12 07:58:46;;;;;;;;;;;;;;;18.95;57.90;100028.56;2057776;28;19951;-38
2021/11/12 07:59:46;;;;;;;;;;;;;;;18.96;57.94;100017.50;2058023;28;19910;-38
2021/11/12 08:00:47;;;;;;;;;;;;;;;18.96;57.81;100025.69;2058842;28;19973;-39
2021/11/12 08:01:47;;;;;;;;;;;;;;;18.97;57.83;100021.09;2058103;28;19922;-38
2021/11/12 08:02:47;;;;;;;;;;;;;;;18.98;57.82;100022.78;2062050;28;19929;-38
2021/11/12 08:03:52;;;;;;;;;;;;;;;18.98;57.73;100017.31;2058193;28;19932;-38
2021/11/12 08:04:59;;;;;;;;;;;;;;;18.97;57.73;100011.00;2058508;28;19987;-38
2021/11/12 08:06:02;;;;;;;;;;;;;;;18.98;57.79;100014.59;2062190;28;19980;-38
2021/11/12 08:07:02;;;;;;;;;;;;;;;18.98;57.67;100017.31;2058432;28;20328;-38
2021/11/12 08:08:06;;;;;;;;;;;;;;;19.00;57.63;100015.31;2056957;28;20013;-38
2021/11/12 08:09:16;;;;;;;;;;;;;;;19.02;57.68;100018.75;2057166;28;20310;-38
2021/11/12 08:10:19;;;;;;;;;;;;;;;19.03;57.43;100020.47;2058351;28;19917;-38
2021/11/12 08:11:26;;;;;;;;;;;;;;;19.05;57.51;100018.44;2059420;28;19924;-38
2021/11/12 08:12:30;;;;;;;;;;;;;;;19.06;57.48;100025.66;2062277;28;20818;-39
2021/11/12 08:17:38;;;;;;;;;;;;;;;19.09;57.48;100030.78;2063717;28;19917;-38
2021/11/12 08:19:44;;;;;;;;;;;;;;;19.10;57.30;100031.66;2061297;28;20930;-38
2021/11/12 08:21:50;;;;;;;;;;;;;;;19.11;57.16;100023.31;2059090;28;20194;-38
2021/11/12 08:22:18;;;;;;;;;;;;;;;19.12;57.33;100030.47;2051813;28;19910;-38
2021/11/12 08:23:25;;;;;;;;;;;;;;;19.13;57.44;100024.00;2065342;28;19971;-39
2021/11/12 08:24:40;;;;;;;;;;;;;;;19.18;57.15;100026.28;2062491;28;19913;-38
2021/11/12 08:25:47;;;;;;;;;;;;;;;19.19;57.00;100026.13;2056405;28;20797;-38
2021/11/12 08:28:12;;;;;;;;;;;;;;;19.25;56.86;100030.97;2053128;28;20630;-39